sensor_id;sensor_type;location;lat;lon;timestamp;pressure;altitude;pressure_sealevel;temperature;humidity
66479;BME280;53294;47.912;13.526;2023-12-07T00:00:07;96367.91;;;1.81;78.53
66479;BME280;53294;47.912;13.526;2023-12-07T00:02:34;96368.78;;;1.86;77.99
66479;BME280;53294;47.912;13.526;2023-12-07T00:05:01;96366.28;;;1.68;79.17
66479;BME280;53294;47.912;13.526;2023-12-07T00:07:28;96368.47;;;1.71;79.46
66479;BME280;53294;47.912;13.526;2023-12-07T00:09:54;96364.88;;;1.89;78.51
66479;BME280;53294;47.912;13.526;2023-12-07T00:12:21;96366.72;;;1.88;78.47
66479;BME280;53294;47.912;13.526;2023-12-07T00:14:48;96372.03;;;2.17;76.95
66479;BME280;53294;47.912;13.526;2023-12-07T00:17:15;96365.41;;;2.03;77.07
66479;BME280;53294;47.912;13.526;2023-12-07T00:19:42;96373.06;;;1.87;78.31
66479;BME280;53294;47.912;13.526;2023-12-07T00:22:08;96373.66;;;1.77;78.33
66479;BME280;53294;47.912;13.526;2023-12-07T00:24:35;96372.59;;;1.90;77.28
66479;BME280;53294;47.912;13.526;2023-12-07T00:27:02;96374.84;;;1.98;77.06
66479;BME280;53294;47.912;13.526;2023-12-07T00:29:29;96382.09;;;2.03;76.76
66479;BME280;53294;47.912;13.526;2023-12-07T00:31:55;96379.22;;;1.52;78.34
66479;BME280;53294;47.912;13.526;2023-12-07T00:34:22;96379.56;;;1.44;79.66
66479;BME280;53294;47.912;13.526;2023-12-07T00:36:49;96394.06;;;1.65;78.82
66479;BME280;53294;47.912;13.526;2023-12-07T00:39:16;96385.41;;;1.70;78.64
66479;BME280;53294;47.912;13.526;2023-12-07T00:41:43;96389.66;;;1.71;79.00
66479;BME280;53294;47.912;13.526;2023-12-07T00:44:10;96383.66;;;1.87;77.59
66479;BME280;53294;47.912;13.526;2023-12-07T00:46:36;96386.16;;;1.94;77.58
66479;BME280;53294;47.912;13.526;2023-12-07T00:49:03;96384.50;;;2.05;76.60
66479;BME280;53294;47.912;13.526;2023-12-07T00:51:30;96379.69;;;2.02;77.11
66479;BME280;53294;47.912;13.526;2023-12-07T00:53:57;96389.63;;;1.94;77.65
66479;BME280;53294;47.912;13.526;2023-12-07T00:56:24;96379.88;;;2.12;75.99
66479;BME280;53294;47.912;13.526;2023-12-07T00:58:51;96384.72;;;2.15;75.88
66479;BME280;53294;47.912;13.526;2023-12-07T01:01:18;96384.72;;;2.15;75.37
66479;BME280;53294;47.912;13.526;2023-12-07T01:03:44;96385.03;;;2.19;75.73
66479;BME280;53294;47.912;13.526;2023-12-07T01:06:11;96383.78;;;2.21;75.14
66479;BME280;53294;47.912;13.526;2023-12-07T01:08:38;96385.81;;;2.02;76.10
66479;BME280;53294;47.912;13.526;2023-12-07T01:11:05;96386.03;;;2.01;76.63
66479;BME280;53294;47.912;13.526;2023-12-07T01:13:32;96392.09;;;2.13;76.18
66479;BME280;53294;47.912;13.526;2023-12-07T01:15:58;96391.00;;;2.26;75.54
66479;BME280;53294;47.912;13.526;2023-12-07T01:18:25;96395.84;;;2.29;74.70
66479;BME280;53294;47.912;13.526;2023-12-07T01:20:52;96396.00;;;2.39;74.57
66479;BME280;53294;47.912;13.526;2023-12-07T01:23:19;96395.06;;;2.45;74.39
66479;BME280;53294;47.912;13.526;2023-12-07T01:25:45;96402.31;;;2.50;74.55
66479;BME280;53294;47.912;13.526;2023-12-07T01:28:12;96402.97;;;2.57;74.26
66479;BME280;53294;47.912;13.526;2023-12-07T01:30:39;96411.47;;;2.59;74.45
66479;BME280;53294;47.912;13.526;2023-12-07T01:33:06;96402.25;;;2.62;74.10
66479;BME280;53294;47.912;13.526;2023-12-07T01:35:33;96407.63;;;2.67;73.82
66479;BME280;53294;47.912;13.526;2023-12-07T01:37:59;96412.81;;;2.74;73.53
66479;BME280;53294;47.912;13.526;2023-12-07T01:40:26;96407.75;;;2.72;74.21
66479;BME280;53294;47.912;13.526;2023-12-07T01:42:53;96406.38;;;2.69;74.70
66479;BME280;53294;47.912;13.526;2023-12-07T01:45:20;96402.56;;;2.65;75.21
66479;BME280;53294;47.912;13.526;2023-12-07T01:47:49;96405.69;;;2.62;74.91
66479;BME280;53294;47.912;13.526;2023-12-07T01:50:17;96409.91;;;2.58;75.51
66479;BME280;53294;47.912;13.526;2023-12-07T01:52:47;96407.13;;;2.53;75.34
66479;BME280;53294;47.912;13.526;2023-12-07T01:55:15;96409.13;;;2.17;76.95
66479;BME280;53294;47.912;13.526;2023-12-07T01:57:44;96417.94;;;2.06;77.68
66479;BME280;53294;47.912;13.526;2023-12-07T02:00:12;96421.25;;;2.13;77.60
66479;BME280;53294;47.912;13.526;2023-12-07T02:02:40;96415.81;;;2.20;77.86
66479;BME280;53294;47.912;13.526;2023-12-07T02:05:07;96420.78;;;2.16;77.31
66479;BME280;53294;47.912;13.526;2023-12-07T02:07:34;96412.16;;;2.09;76.89
66479;BME280;53294;47.912;13.526;2023-12-07T02:10:02;96422.34;;;1.88;77.14
66479;BME280;53294;47.912;13.526;2023-12-07T02:12:29;96423.47;;;1.92;76.94
66479;BME280;53294;47.912;13.526;2023-12-07T02:14:56;96420.47;;;2.01;76.29
66479;BME280;53294;47.912;13.526;2023-12-07T02:17:31;96422.53;;;1.98;76.00
66479;BME280;53294;47.912;13.526;2023-12-07T02:23:07;96423.16;;;1.89;76.68
66479;BME280;53294;47.912;13.526;2023-12-07T02:25:53;96432.50;;;1.91;76.85
66479;BME280;53294;47.912;13.526;2023-12-07T02:28:21;96434.66;;;1.94;76.61
66479;BME280;53294;47.912;13.526;2023-12-07T02:30:47;96429.31;;;2.06;76.65
66479;BME280;53294;47.912;13.526;2023-12-07T02:33:14;96434.16;;;2.09;77.44
66479;BME280;53294;47.912;13.526;2023-12-07T02:35:42;96432.88;;;2.12;77.25
66479;BME280;53294;47.912;13.526;2023-12-07T02:38:09;96430.81;;;2.14;77.40
66479;BME280;53294;47.912;13.526;2023-12-07T02:40:36;96436.94;;;2.14;77.59
66479;BME280;53294;47.912;13.526;2023-12-07T02:43:04;96429.53;;;2.17;77.97
66479;BME280;53294;47.912;13.526;2023-12-07T02:45:31;96431.16;;;2.18;78.05
66479;BME280;53294;47.912;13.526;2023-12-07T02:47:59;96430.94;;;2.19;77.66
66479;BME280;53294;47.912;13.526;2023-12-07T02:50:26;96436.94;;;2.14;77.17
66479;BME280;53294;47.912;13.526;2023-12-07T02:52:53;96436.38;;;2.01;77.40
66479;BME280;53294;47.912;13.526;2023-12-07T02:55:19;96437.09;;;1.84;77.95
66479;BME280;53294;47.912;13.526;2023-12-07T02:57:46;96448.72;;;1.83;78.41
66479;BME280;53294;47.912;13.526;2023-12-07T03:00:14;96451.84;;;1.80;78.20
66479;BME280;53294;47.912;13.526;2023-12-07T03:02:40;96456.34;;;1.79;78.37
66479;BME280;53294;47.912;13.526;2023-12-07T03:05:07;96463.81;;;1.71;78.26
66479;BME280;53294;47.912;13.526;2023-12-07T03:07:35;96458.41;;;1.66;78.62
66479;BME280;53294;47.912;13.526;2023-12-07T03:10:02;96462.09;;;1.65;78.36
66479;BME280;53294;47.912;13.526;2023-12-07T03:12:30;96463.63;;;1.60;78.31
66479;BME280;53294;47.912;13.526;2023-12-07T03:14:57;96471.31;;;1.62;78.16
66479;BME280;53294;47.912;13.526;2023-12-07T03:17:24;96471.44;;;1.67;77.55
66479;BME280;53294;47.912;13.526;2023-12-07T03:19:51;96471.56;;;1.60;78.20
66479;BME280;53294;47.912;13.526;2023-12-07T03:22:17;96471.09;;;1.64;78.11
66479;BME280;53294;47.912;13.526;2023-12-07T03:24:51;96470.75;;;1.72;78.76
66479;BME280;53294;47.912;13.526;2023-12-07T03:27:18;96470.28;;;1.75;78.51
66479;BME280;53294;47.912;13.526;2023-12-07T03:29:46;96469.25;;;1.76;78.74
66479;BME280;53294;47.912;13.526;2023-12-07T03:32:13;96478.00;;;1.76;78.84
66479;BME280;53294;47.912;13.526;2023-12-07T03:34:39;96482.97;;;1.73;79.07
66479;BME280;53294;47.912;13.526;2023-12-07T03:37:06;96482.59;;;1.69;78.68
66479;BME280;53294;47.912;13.526;2023-12-07T03:39:33;96489.63;;;1.64;79.33
66479;BME280;53294;47.912;13.526;2023-12-07T03:42:00;96477.41;;;1.63;78.96
66479;BME280;53294;47.912;13.526;2023-12-07T03:44:27;96484.78;;;1.72;78.08
66479;BME280;53294;47.912;13.526;2023-12-07T03:46:54;96480.50;;;1.83;77.50
66479;BME280;53294;47.912;13.526;2023-12-07T03:49:21;96487.28;;;1.91;76.59
66479;BME280;53294;47.912;13.526;2023-12-07T03:51:48;96491.44;;;1.98;76.59
66479;BME280;53294;47.912;13.526;2023-12-07T03:54:15;96500.31;;;2.04;76.22
66479;BME280;53294;47.912;13.526;2023-12-07T03:56:42;96500.66;;;2.08;76.48
66479;BME280;53294;47.912;13.526;2023-12-07T03:59:09;96503.88;;;2.10;76.37
66479;BME280;53294;47.912;13.526;2023-12-07T04:01:35;96505.00;;;2.14;75.88
66479;BME280;53294;47.912;13.526;2023-12-07T04:04:02;96512.97;;;2.14;76.11
66479;BME280;53294;47.912;13.526;2023-12-07T04:06:29;96510.91;;;2.16;76.70
66479;BME280;53294;47.912;13.526;2023-12-07T04:08:56;96517.00;;;2.05;76.83
66479;BME280;53294;47.912;13.526;2023-12-07T04:11:23;96520.94;;;1.90;77.61
66479;BME280;53294;47.912;13.526;2023-12-07T04:13:49;96522.44;;;1.74;78.21
66479;BME280;53294;47.912;13.526;2023-12-07T04:16:16;96524.63;;;1.66;78.18
66479;BME280;53294;47.912;13.526;2023-12-07T04:18:43;96523.47;;;1.61;77.84
66479;BME280;53294;47.912;13.526;2023-12-07T04:21:10;96525.53;;;1.59;77.83
66479;BME280;53294;47.912;13.526;2023-12-07T04:23:37;96526.81;;;1.69;77.67
66479;BME280;53294;47.912;13.526;2023-12-07T04:26:04;96526.13;;;1.73;77.10
66479;BME280;53294;47.912;13.526;2023-12-07T04:28:31;96532.94;;;1.81;76.91
66479;BME280;53294;47.912;13.526;2023-12-07T04:30:57;96535.22;;;1.89;76.63
66479;BME280;53294;47.912;13.526;2023-12-07T04:33:24;96539.97;;;1.99;76.21
66479;BME280;53294;47.912;13.526;2023-12-07T04:35:51;96539.84;;;2.06;76.20
66479;BME280;53294;47.912;13.526;2023-12-07T04:38:18;96535.69;;;2.10;76.07
66479;BME280;53294;47.912;13.526;2023-12-07T04:40:45;96549.03;;;2.15;75.79
66479;BME280;53294;47.912;13.526;2023-12-07T04:43:11;96544.91;;;2.19;75.69
66479;BME280;53294;47.912;13.526;2023-12-07T04:45:38;96538.44;;;2.03;75.95
66479;BME280;53294;47.912;13.526;2023-12-07T04:48:05;96542.13;;;2.14;75.65
66479;BME280;53294;47.912;13.526;2023-12-07T04:50:32;96549.97;;;2.09;75.69
66479;BME280;53294;47.912;13.526;2023-12-07T04:52:59;96557.69;;;1.98;75.94
66479;BME280;53294;47.912;13.526;2023-12-07T04:55:26;96560.34;;;1.98;76.06
66479;BME280;53294;47.912;13.526;2023-12-07T04:57:53;96563.69;;;1.94;76.91
66479;BME280;53294;47.912;13.526;2023-12-07T05:00:20;96564.03;;;1.97;76.55
66479;BME280;53294;47.912;13.526;2023-12-07T05:02:48;96562.28;;;1.79;76.74
66479;BME280;53294;47.912;13.526;2023-12-07T05:05:15;96570.81;;;1.82;77.07
66479;BME280;53294;47.912;13.526;2023-12-07T05:07:42;96575.09;;;1.94;76.14
66479;BME280;53294;47.912;13.526;2023-12-07T05:10:09;96578.09;;;1.98;76.14
66479;BME280;53294;47.912;13.526;2023-12-07T05:12:36;96571.16;;;1.97;75.55
66479;BME280;53294;47.912;13.526;2023-12-07T05:15:03;96576.13;;;1.93;76.00
66479;BME280;53294;47.912;13.526;2023-12-07T05:17:32;96571.19;;;1.85;76.33
66479;BME280;53294;47.912;13.526;2023-12-07T05:19:59;96584.66;;;1.84;76.62
66479;BME280;53294;47.912;13.526;2023-12-07T05:22:26;96570.94;;;2.22;74.36
66479;BME280;53294;47.912;13.526;2023-12-07T05:24:54;96579.00;;;2.27;74.42
66479;BME280;53294;47.912;13.526;2023-12-07T05:27:20;96578.31;;;2.20;74.62
66479;BME280;53294;47.912;13.526;2023-12-07T05:29:47;96585.13;;;2.04;74.87
66479;BME280;53294;47.912;13.526;2023-12-07T05:32:14;96586.59;;;2.12;74.35
66479;BME280;53294;47.912;13.526;2023-12-07T05:34:41;96588.66;;;2.33;73.69
66479;BME280;53294;47.912;13.526;2023-12-07T05:37:08;96585.91;;;2.05;73.90
66479;BME280;53294;47.912;13.526;2023-12-07T05:39:35;96584.75;;;2.24;73.51
66479;BME280;53294;47.912;13.526;2023-12-07T05:42:02;96592.34;;;1.97;74.63
66479;BME280;53294;47.912;13.526;2023-12-07T05:44:30;96590.63;;;1.91;74.98
66479;BME280;53294;47.912;13.526;2023-12-07T05:46:57;96588.56;;;2.17;73.42
66479;BME280;53294;47.912;13.526;2023-12-07T05:49:24;96588.91;;;2.20;73.48
66479;BME280;53294;47.912;13.526;2023-12-07T05:51:51;96586.03;;;1.86;73.84
66479;BME280;53294;47.912;13.526;2023-12-07T05:54:20;96586.03;;;1.98;74.26
66479;BME280;53294;47.912;13.526;2023-12-07T05:56:49;96586.72;;;2.17;73.30
66479;BME280;53294;47.912;13.526;2023-12-07T05:59:16;96593.53;;;2.13;73.23
66479;BME280;53294;47.912;13.526;2023-12-07T06:01:43;96596.38;;;1.88;74.18
66479;BME280;53294;47.912;13.526;2023-12-07T06:04:10;96598.00;;;1.77;74.77
66479;BME280;53294;47.912;13.526;2023-12-07T06:06:39;96599.50;;;1.73;75.17
66479;BME280;53294;47.912;13.526;2023-12-07T06:09:06;96596.72;;;1.68;75.56
66479;BME280;53294;47.912;13.526;2023-12-07T06:11:33;96598.66;;;1.60;76.01
66479;BME280;53294;47.912;13.526;2023-12-07T06:14:01;96593.63;;;1.83;74.72
66479;BME280;53294;47.912;13.526;2023-12-07T06:16:28;96605.25;;;1.82;74.73
66479;BME280;53294;47.912;13.526;2023-12-07T06:18:55;96604.00;;;1.84;74.62
66479;BME280;53294;47.912;13.526;2023-12-07T06:21:22;96599.97;;;1.70;74.35
66479;BME280;53294;47.912;13.526;2023-12-07T06:23:48;96605.09;;;1.53;74.64
66479;BME280;53294;47.912;13.526;2023-12-07T06:26:16;96602.09;;;1.49;75.07
66479;BME280;53294;47.912;13.526;2023-12-07T06:28:43;96602.16;;;1.31;75.38
66479;BME280;53294;47.912;13.526;2023-12-07T06:31:11;96594.09;;;1.79;74.36
66479;BME280;53294;47.912;13.526;2023-12-07T06:33:38;96595.44;;;1.70;74.39
66479;BME280;53294;47.912;13.526;2023-12-07T06:36:06;96592.69;;;1.65;74.27
66479;BME280;53294;47.912;13.526;2023-12-07T06:38:33;96595.47;;;1.82;73.61
66479;BME280;53294;47.912;13.526;2023-12-07T06:41:01;96597.78;;;1.90;73.95
66479;BME280;53294;47.912;13.526;2023-12-07T06:43:28;96610.22;;;1.78;74.06
66479;BME280;53294;47.912;13.526;2023-12-07T06:45:55;96617.22;;;1.72;74.28
66479;BME280;53294;47.912;13.526;2023-12-07T06:48:22;96622.06;;;1.64;75.02
66479;BME280;53294;47.912;13.526;2023-12-07T06:50:49;96625.84;;;1.56;75.49
66479;BME280;53294;47.912;13.526;2023-12-07T06:53:16;96625.28;;;1.66;75.15
66479;BME280;53294;47.912;13.526;2023-12-07T06:55:45;96629.31;;;1.68;74.85
66479;BME280;53294;47.912;13.526;2023-12-07T06:58:11;96627.13;;;1.77;74.56
66479;BME280;53294;47.912;13.526;2023-12-07T07:00:38;96618.88;;;1.85;74.10
66479;BME280;53294;47.912;13.526;2023-12-07T07:03:05;96624.38;;;1.95;73.53
66479;BME280;53294;47.912;13.526;2023-12-07T07:05:35;96624.50;;;1.89;73.49
66479;BME280;53294;47.912;13.526;2023-12-07T07:08:02;96618.16;;;2.02;73.37
66479;BME280;53294;47.912;13.526;2023-12-07T07:10:29;96605.84;;;2.07;73.40
66479;BME280;53294;47.912;13.526;2023-12-07T07:13:00;96616.78;;;2.11;73.32
66479;BME280;53294;47.912;13.526;2023-12-07T07:15:27;96619.34;;;2.18;72.67
66479;BME280;53294;47.912;13.526;2023-12-07T07:17:54;96617.94;;;2.27;72.59
66479;BME280;53294;47.912;13.526;2023-12-07T07:20:20;96622.91;;;2.35;71.98
66479;BME280;53294;47.912;13.526;2023-12-07T07:22:48;96617.25;;;2.31;71.75
66479;BME280;53294;47.912;13.526;2023-12-07T07:25:15;96616.91;;;2.28;72.20
66479;BME280;53294;47.912;13.526;2023-12-07T07:27:42;96621.75;;;2.31;71.86
66479;BME280;53294;47.912;13.526;2023-12-07T07:30:10;96625.78;;;2.33;71.91
66479;BME280;53294;47.912;13.526;2023-12-07T07:32:37;96620.34;;;2.40;71.46
66479;BME280;53294;47.912;13.526;2023-12-07T07:35:04;96617.81;;;2.45;71.87
66479;BME280;53294;47.912;13.526;2023-12-07T07:37:30;96611.56;;;2.51;71.30
66479;BME280;53294;47.912;13.526;2023-12-07T07:39:57;96616.31;;;2.61;71.96
66479;BME280;53294;47.912;13.526;2023-12-07T07:42:26;96607.66;;;2.66;72.13
66479;BME280;53294;47.912;13.526;2023-12-07T07:44:53;96610.06;;;2.67;73.31
66479;BME280;53294;47.912;13.526;2023-12-07T07:47:19;96611.88;;;2.79;72.14
66479;BME280;53294;47.912;13.526;2023-12-07T07:49:46;96605.16;;;2.88;71.58
66479;BME280;53294;47.912;13.526;2023-12-07T07:52:13;96605.50;;;2.92;71.45
66479;BME280;53294;47.912;13.526;2023-12-07T07:54:40;96603.75;;;2.97;72.49
66479;BME280;53294;47.912;13.526;2023-12-07T07:57:06;96605.22;;;3.05;72.87
66479;BME280;53294;47.912;13.526;2023-12-07T07:59:33;96609.13;;;3.14;72.62
66479;BME280;53294;47.912;13.526;2023-12-07T08:02:01;96604.59;;;3.15;72.22
66479;BME280;53294;47.912;13.526;2023-12-07T08:04:29;96609.28;;;3.24;70.85
66479;BME280;53294;47.912;13.526;2023-12-07T08:06:56;96603.47;;;3.39;70.09
66479;BME280;53294;47.912;13.526;2023-12-07T08:09:22;96594.13;;;3.54;69.41
66479;BME280;53294;47.912;13.526;2023-12-07T08:11:49;96595.94;;;3.65;68.49
66479;BME280;53294;47.912;13.526;2023-12-07T08:14:16;96597.16;;;3.74;67.89
66479;BME280;53294;47.912;13.526;2023-12-07T08:16:46;96594.09;;;3.83;67.52
66479;BME280;53294;47.912;13.526;2023-12-07T08:19:13;96595.78;;;3.89;67.10
66479;BME280;53294;47.912;13.526;2023-12-07T08:21:40;96593.00;;;4.01;66.79
66479;BME280;53294;47.912;13.526;2023-12-07T08:24:07;96597.75;;;4.16;66.34
66479;BME280;53294;47.912;13.526;2023-12-07T08:26:33;96591.47;;;4.22;65.86
66479;BME280;53294;47.912;13.526;2023-12-07T08:29:00;96599.44;;;4.22;65.51
66479;BME280;53294;47.912;13.526;2023-12-07T08:31:27;96596.72;;;4.17;65.63
66479;BME280;53294;47.912;13.526;2023-12-07T08:33:55;96598.25;;;4.12;65.49
66479;BME280;53294;47.912;13.526;2023-12-07T08:36:22;96600.41;;;4.16;65.35
66479;BME280;53294;47.912;13.526;2023-12-07T08:38:48;96601.47;;;4.14;65.11
66479;BME280;53294;47.912;13.526;2023-12-07T08:41:15;96605.44;;;4.12;65.16
66479;BME280;53294;47.912;13.526;2023-12-07T08:43:42;96603.50;;;4.07;65.12
66479;BME280;53294;47.912;13.526;2023-12-07T08:46:09;96593.91;;;4.06;64.90
66479;BME280;53294;47.912;13.526;2023-12-07T08:48:36;96600.84;;;4.07;65.22
66479;BME280;53294;47.912;13.526;2023-12-07T08:51:08;96593.97;;;4.11;64.58
66479;BME280;53294;47.912;13.526;2023-12-07T08:53:35;96599.38;;;4.17;64.18
66479;BME280;53294;47.912;13.526;2023-12-07T08:56:02;96608.56;;;4.26;64.48
66479;BME280;53294;47.912;13.526;2023-12-07T08:58:29;96598.53;;;4.33;63.97
66479;BME280;53294;47.912;13.526;2023-12-07T09:00:56;96607.09;;;4.35;64.09
66479;BME280;53294;47.912;13.526;2023-12-07T09:03:23;96607.59;;;4.32;63.81
66479;BME280;53294;47.912;13.526;2023-12-07T09:06:01;96591.03;;;4.30;63.74
66479;BME280;53294;47.912;13.526;2023-12-07T09:08:29;96591.13;;;4.35;63.81
66479;BME280;53294;47.912;13.526;2023-12-07T09:10:55;96586.44;;;4.42;64.80
66479;BME280;53294;47.912;13.526;2023-12-07T09:13:22;96593.06;;;4.40;63.84
66479;BME280;53294;47.912;13.526;2023-12-07T09:15:49;96599.03;;;4.30;63.71
66479;BME280;53294;47.912;13.526;2023-12-07T09:18:16;96591.78;;;4.08;63.96
66479;BME280;53294;47.912;13.526;2023-12-07T09:20:43;96595.03;;;4.10;63.87
66479;BME280;53294;47.912;13.526;2023-12-07T09:23:13;96595.91;;;3.99;64.36
66479;BME280;53294;47.912;13.526;2023-12-07T09:25:42;96594.31;;;4.15;64.00
66479;BME280;53294;47.912;13.526;2023-12-07T09:28:10;96590.34;;;4.01;63.48
66479;BME280;53294;47.912;13.526;2023-12-07T09:30:36;96597.34;;;4.24;63.58
66479;BME280;53294;47.912;13.526;2023-12-07T09:33:04;96594.06;;;4.17;64.19
66479;BME280;53294;47.912;13.526;2023-12-07T09:35:31;96592.59;;;4.26;63.73
66479;BME280;53294;47.912;13.526;2023-12-07T09:38:01;96592.94;;;4.52;63.23
66479;BME280;53294;47.912;13.526;2023-12-07T09:40:29;96586.50;;;4.92;62.09
66479;BME280;53294;47.912;13.526;2023-12-07T09:42:57;96594.28;;;5.20;61.17
66479;BME280;53294;47.912;13.526;2023-12-07T09:45:24;96591.81;;;5.41;60.50
66479;BME280;53294;47.912;13.526;2023-12-07T09:47:54;96582.91;;;5.57;60.29
66479;BME280;53294;47.912;13.526;2023-12-07T09:50:24;96585.16;;;5.71;59.75
66479;BME280;53294;47.912;13.526;2023-12-07T09:52:52;96575.22;;;5.93;58.69
66479;BME280;53294;47.912;13.526;2023-12-07T09:55:33;96574.56;;;6.14;58.08
66479;BME280;53294;47.912;13.526;2023-12-07T09:58:03;96565.31;;;6.26;57.90
66479;BME280;53294;47.912;13.526;2023-12-07T10:00:30;96566.22;;;6.47;57.04
66479;BME280;53294;47.912;13.526;2023-12-07T10:02:57;96573.00;;;6.65;56.64
66479;BME280;53294;47.912;13.526;2023-12-07T10:05:23;96570.63;;;6.74;55.93
66479;BME280;53294;47.912;13.526;2023-12-07T10:07:51;96566.53;;;6.56;55.10
66479;BME280;53294;47.912;13.526;2023-12-07T10:10:18;96564.28;;;6.33;56.27
66479;BME280;53294;47.912;13.526;2023-12-07T10:12:56;96572.19;;;6.17;56.38
66479;BME280;53294;47.912;13.526;2023-12-07T10:15:24;96569.47;;;6.12;56.59
66479;BME280;53294;47.912;13.526;2023-12-07T10:17:56;96558.28;;;6.15;56.32
66479;BME280;53294;47.912;13.526;2023-12-07T10:20:29;96574.53;;;6.08;55.44
66479;BME280;53294;47.912;13.526;2023-12-07T10:23:04;96573.44;;;6.04;56.94
66479;BME280;53294;47.912;13.526;2023-12-07T10:25:35;96555.06;;;6.56;55.64
66479;BME280;53294;47.912;13.526;2023-12-07T10:28:03;96560.28;;;6.98;54.55
66479;BME280;53294;47.912;13.526;2023-12-07T10:30:42;96548.63;;;7.51;52.76
66479;BME280;53294;47.912;13.526;2023-12-07T10:33:11;96544.88;;;7.98;51.12
66479;BME280;53294;47.912;13.526;2023-12-07T10:35:40;96540.59;;;8.13;49.84
66479;BME280;53294;47.912;13.526;2023-12-07T10:38:08;96542.13;;;8.44;48.55
66479;BME280;53294;47.912;13.526;2023-12-07T10:40:35;96538.38;;;8.51;47.98
66479;BME280;53294;47.912;13.526;2023-12-07T10:43:04;96533.31;;;8.44;47.46
66479;BME280;53294;47.912;13.526;2023-12-07T10:45:33;96530.19;;;8.92;46.17
66479;BME280;53294;47.912;13.526;2023-12-07T10:48:10;96530.81;;;9.18;45.88
66479;BME280;53294;47.912;13.526;2023-12-07T10:50:41;96532.63;;;9.33;45.05
66479;BME280;53294;47.912;13.526;2023-12-07T10:53:17;96528.38;;;9.66;44.23
66479;BME280;53294;47.912;13.526;2023-12-07T10:55:52;96534.31;;;9.58;44.43
66479;BME280;53294;47.912;13.526;2023-12-07T10:58:19;96524.66;;;9.92;43.26
66479;BME280;53294;47.912;13.526;2023-12-07T11:00:48;96519.66;;;10.09;43.21
66479;BME280;53294;47.912;13.526;2023-12-07T11:03:16;96512.38;;;10.15;42.48
66479;BME280;53294;47.912;13.526;2023-12-07T11:05:45;96517.53;;;10.06;42.53
66479;BME280;53294;47.912;13.526;2023-12-07T11:10:48;96521.69;;;10.22;42.79
66479;BME280;53294;47.912;13.526;2023-12-07T11:13:26;96511.13;;;10.55;41.25
66479;BME280;53294;47.912;13.526;2023-12-07T11:15:54;96511.34;;;10.83;40.97
66479;BME280;53294;47.912;13.526;2023-12-07T11:18:21;96507.25;;;10.86;40.42
66479;BME280;53294;47.912;13.526;2023-12-07T11:20:48;96506.44;;;10.42;41.75
66479;BME280;53294;47.912;13.526;2023-12-07T11:23:17;96509.56;;;9.96;42.36
66479;BME280;53294;47.912;13.526;2023-12-07T11:25:47;96508.28;;;9.93;42.98
66479;BME280;53294;47.912;13.526;2023-12-07T11:28:15;96510.00;;;10.08;41.82
66479;BME280;53294;47.912;13.526;2023-12-07T11:30:45;96509.56;;;9.96;41.57
66479;BME280;53294;47.912;13.526;2023-12-07T11:33:15;96501.94;;;9.79;41.70
66479;BME280;53294;47.912;13.526;2023-12-07T11:36:05;96505.97;;;9.81;41.68
66479;BME280;53294;47.912;13.526;2023-12-07T11:38:33;96495.16;;;9.86;40.81
66479;BME280;53294;47.912;13.526;2023-12-07T11:41:00;96503.78;;;9.54;42.07
66479;BME280;53294;47.912;13.526;2023-12-07T11:46:07;96505.28;;;9.31;42.79
66479;BME280;53294;47.912;13.526;2023-12-07T11:48:34;96495.03;;;9.38;42.09
66479;BME280;53294;47.912;13.526;2023-12-07T11:51:06;96496.47;;;9.60;42.01
66479;BME280;53294;47.912;13.526;2023-12-07T11:53:35;96501.25;;;9.68;41.46
66479;BME280;53294;47.912;13.526;2023-12-07T11:56:04;96499.09;;;9.70;41.45
66479;BME280;53294;47.912;13.526;2023-12-07T11:58:33;96498.94;;;9.85;41.85
66479;BME280;53294;47.912;13.526;2023-12-07T12:01:05;96488.06;;;10.01;40.58
66479;BME280;53294;47.912;13.526;2023-12-07T12:03:33;96479.34;;;10.14;40.72
66479;BME280;53294;47.912;13.526;2023-12-07T12:06:05;96475.97;;;10.28;40.30
66479;BME280;53294;47.912;13.526;2023-12-07T12:08:34;96477.69;;;10.18;40.41
66479;BME280;53294;47.912;13.526;2023-12-07T12:11:01;96479.34;;;10.14;39.25
66479;BME280;53294;47.912;13.526;2023-12-07T12:13:29;96471.66;;;10.32;38.88
66479;BME280;53294;47.912;13.526;2023-12-07T12:15:57;96464.38;;;10.56;38.06
66479;BME280;53294;47.912;13.526;2023-12-07T12:18:29;96473.84;;;10.73;38.19
66479;BME280;53294;47.912;13.526;2023-12-07T12:20:56;96470.50;;;10.81;37.20
66479;BME280;53294;47.912;13.526;2023-12-07T12:23:26;96465.09;;;10.86;37.41
66479;BME280;53294;47.912;13.526;2023-12-07T12:25:54;96462.66;;;10.66;37.13
66479;BME280;53294;47.912;13.526;2023-12-07T12:28:21;96465.63;;;10.64;38.48
66479;BME280;53294;47.912;13.526;2023-12-07T12:30:50;96464.59;;;10.41;38.63
66479;BME280;53294;47.912;13.526;2023-12-07T12:33:18;96465.41;;;10.12;39.40
66479;BME280;53294;47.912;13.526;2023-12-07T12:35:45;96462.09;;;9.96;39.70
66479;BME280;53294;47.912;13.526;2023-12-07T12:38:12;96469.25;;;9.77;39.32
66479;BME280;53294;47.912;13.526;2023-12-07T12:40:53;96465.28;;;9.69;39.97
66479;BME280;53294;47.912;13.526;2023-12-07T12:43:20;96458.00;;;9.45;39.71
66479;BME280;53294;47.912;13.526;2023-12-07T12:45:49;96459.28;;;9.19;40.43
66479;BME280;53294;47.912;13.526;2023-12-07T12:48:32;96461.06;;;9.28;40.76
66479;BME280;53294;47.912;13.526;2023-12-07T12:51:16;96453.75;;;9.39;39.81
66479;BME280;53294;47.912;13.526;2023-12-07T12:53:46;96451.56;;;9.46;40.55
66479;BME280;53294;47.912;13.526;2023-12-07T12:56:18;96449.38;;;9.48;40.09
66479;BME280;53294;47.912;13.526;2023-12-07T12:58:45;96449.88;;;9.56;40.25
66479;BME280;53294;47.912;13.526;2023-12-07T13:01:12;96451.84;;;9.40;40.29
66479;BME280;53294;47.912;13.526;2023-12-07T13:03:39;96456.00;;;9.27;39.80
66479;BME280;53294;47.912;13.526;2023-12-07T13:06:05;96456.59;;;9.13;40.78
66479;BME280;53294;47.912;13.526;2023-12-07T13:08:32;96455.09;;;9.02;41.13
66479;BME280;53294;47.912;13.526;2023-12-07T13:10:59;96463.22;;;8.92;42.05